Time;durP1;ratioP1;P1;durP2;ratioP2;P2;SDS_P1;SDS_P2;PMS_P1;PMS_P2;Temp;Humidity;BMP_temperature;BMP_pressure;BME280_temperature;BME280_humidity;BME280_pressure;Samples;Min_cycle;Max_cycle;Signal;HPM_P1;HPM_P2
2021/05/23 00:01:07;;;;;;;8.15;6.22;;;;;;;13.10;79.85;97624.95;1709344;82;21043;-73
2021/05/23 00:03:35;;;;;;;10.38;6.72;;;;;;;13.12;79.78;97625.77;1694157;84;21053;-73
2021/05/23 00:06:03;;;;;;;8.60;6.65;;;;;;;13.06;79.73;97626.90;1712579;83;21520;-74
2021/05/23 00:08:30;;;;;;;12.33;6.65;;;;;;;12.97;82.02;97625.98;1705427;83;21173;-74
2021/05/23 00:11:02;;;;;;;9.93;6.40;;;;;;;12.98;80.36;97627.25;1698866;83;21075;-73
2021/05/23 00:13:33;;;;;;;8.03;6.20;;;;;;;12.95;80.37;97622.06;1712923;83;21039;-73
2021/05/23 00:16:23;;;;;;;9.88;6.37;;;;;;;12.90;80.07;97612.97;1703961;83;21051;-74
2021/05/23 00:18:54;;;;;;;8.95;7.10;;;;;;;12.88;80.01;97611.31;1689178;84;21050;-74
2021/05/23 00:21:26;;;;;;;10.80;6.53;;;;;;;12.88;80.21;97607.33;1755527;80;21002;-74
2021/05/23 00:23:53;;;;;;;9.90;6.47;;;;;;;12.87;80.85;97609.59;1759737;80;21477;-72
2021/05/23 00:26:20;;;;;;;7.58;6.05;;;;;;;12.82;81.55;97610.27;1752421;80;21171;-74
2021/05/23 00:28:49;;;;;;;9.45;6.20;;;;;;;12.79;80.07;97608.13;1757403;80;21007;-74
2021/05/23 00:31:16;;;;;;;6.78;5.50;;;;;;;12.80;79.75;97613.00;1759354;80;21034;-73
2021/05/23 00:33:43;;;;;;;8.48;5.28;;;;;;;12.73;82.62;97617.72;1690556;82;21165;-73
2021/05/23 00:36:10;;;;;;;7.62;5.33;;;;;;;12.68;80.34;97627.70;1726661;82;21099;-73
2021/05/23 00:38:36;;;;;;;5.40;4.53;;;;;;;12.64;80.01;97620.78;1698214;84;21081;-73
2021/05/23 00:41:04;;;;;;;6.05;4.08;;;;;;;12.58;81.51;97621.91;1691627;83;21547;-74
2021/05/23 00:43:31;;;;;;;5.50;4.12;;;;;;;12.51;81.13;97622.63;1693779;84;21598;-74
2021/05/23 00:45:59;;;;;;;6.28;4.10;;;;;;;12.48;81.10;97618.80;1684077;84;21078;-73
2021/05/23 00:48:25;;;;;;;6.12;4.22;;;;;;;12.42;80.83;97620.41;1696650;84;21098;-74
2021/05/23 00:50:53;;;;;;;5.28;4.20;;;;;;;12.38;81.52;97622.30;1712259;83;21086;-74
2021/05/23 00:53:21;;;;;;;7.62;4.65;;;;;;;12.38;80.85;97616.14;1720493;83;21103;-74
2021/05/23 00:55:47;;;;;;;5.22;4.00;;;;;;;12.37;83.17;97622.40;1702225;83;21035;-75
2021/05/23 00:58:15;;;;;;;6.83;4.05;;;;;;;12.33;81.17;97618.14;1720862;82;21095;-74
2021/05/23 01:00:48;;;;;;;4.28;3.80;;;;;;;12.33;82.58;97618.14;1695671;83;21058;-74
2021/05/23 01:03:35;;;;;;;5.75;3.72;;;;;;;12.29;84.37;97628.01;1716640;83;21504;-75
2021/05/23 01:06:10;;;;;;;8.03;4.10;;;;;;;12.26;83.05;97615.72;1691983;84;21022;-74
2021/05/23 01:08:39;;;;;;;5.47;4.30;;;;;;;12.26;83.28;97614.39;1692457;84;21074;-74
2021/05/23 01:11:09;;;;;;;5.08;4.58;;;;;;;12.23;83.33;97616.32;1728386;82;21038;-74
2021/05/23 01:13:59;;;;;;;6.30;5.03;;;;;;;12.20;83.71;97609.34;1718946;83;21597;-75
2021/05/23 01:16:40;;;;;;;7.62;4.72;;;;;;;12.20;83.83;97610.67;1700138;83;21074;-75
2021/05/23 01:19:33;;;;;;;7.87;4.62;;;;;;;12.18;85.16;97611.22;1708894;83;21606;-74
2021/05/23 01:22:35;;;;;;;5.97;4.42;;;;;;;12.16;87.29;97624.17;1698185;84;21043;-74
2021/05/23 01:25:12;;;;;;;5.92;5.08;;;;;;;12.16;86.23;97618.85;1707182;84;21405;-74
2021/05/23 01:27:47;;;;;;;8.18;4.95;;;;;;;12.15;85.11;97627.27;1705031;83;21073;-74
2021/05/23 01:30:25;;;;;;;7.85;4.85;;;;;;;12.16;85.29;97626.34;1698945;83;21102;-74
2021/05/23 01:32:57;;;;;;;6.25;5.00;;;;;;;12.18;84.72;97624.50;1690308;84;21570;-75
2021/05/23 01:35:37;;;;;;;6.40;4.33;;;;;;;12.24;83.99;97616.27;1691250;84;21100;-73
2021/05/23 01:38:07;;;;;;;5.67;4.30;;;;;;;12.29;85.67;97621.36;1737825;81;21035;-74
2021/05/23 01:40:36;;;;;;;6.70;4.10;;;;;;;12.33;86.10;97618.14;1733675;82;21040;-74
2021/05/23 01:43:05;;;;;;;6.80;3.70;;;;;;;12.37;85.88;97620.58;1733668;82;21059;-74
2021/05/23 01:45:33;;;;;;;4.45;3.70;;;;;;;12.44;85.87;97630.94;1733747;83;21580;-74
2021/05/23 01:48:02;;;;;;;5.05;3.87;;;;;;;12.49;85.63;97628.49;1757577;81;21441;-74
2021/05/23 01:50:29;;;;;;;8.73;3.70;;;;;;;12.50;85.57;97624.90;1774367;81;21047;-74
2021/05/23 01:53:02;;;;;;;5.15;3.80;;;;;;;12.54;85.26;97621.63;1774273;81;21011;-74
2021/05/23 01:55:31;;;;;;;6.55;4.55;;;;;;;12.62;84.84;97629.30;1774258;81;21026;-75
2021/05/23 01:57:58;;;;;;;6.55;3.80;;;;;;;12.67;84.50;97621.50;1751278;81;21059;-75
2021/05/23 02:00:30;;;;;;;6.55;3.95;;;;;;;12.72;84.29;97621.77;1733628;82;21073;-75
2021/05/23 02:02:58;;;;;;;7.10;3.55;;;;;;;12.75;84.80;97611.86;1733590;82;21551;-74
2021/05/23 02:05:26;;;;;;;4.65;3.40;;;;;;;12.85;84.34;97634.05;1733646;83;21078;-75
2021/05/23 02:07:53;;;;;;;6.25;4.00;;;;;;;12.87;84.06;97626.88;1755023;81;21487;-75
2021/05/23 02:10:20;;;;;;;6.42;3.85;;;;;;;12.88;84.02;97631.27;1762457;80;21547;-74
2021/05/23 02:12:47;;;;;;;7.25;3.90;;;;;;;12.88;84.64;97639.24;1733668;83;20988;-74
2021/05/23 02:15:18;;;;;;;6.35;4.70;;;;;;;12.89;84.38;97638.30;1733695;83;21027;-74
2021/05/23 02:17:47;;;;;;;4.28;3.87;;;;;;;12.92;83.32;97643.02;1725094;81;21031;-74
2021/05/23 02:20:21;;;;;;;6.78;4.22;;;;;;;12.87;83.87;97646.83;1723665;81;21090;-74
2021/05/23 02:22:51;;;;;;;5.45;4.45;;;;;;;12.83;84.31;97658.53;1767693;81;21050;-74
2021/05/23 02:25:20;;;;;;;5.87;4.10;;;;;;;12.77;83.92;97663.64;1758873;81;21488;-74
2021/05/23 02:28:01;;;;;;;7.85;4.83;;;;;;;12.72;83.67;97662.53;1733585;83;21059;-74
2021/05/23 02:30:35;;;;;;;5.08;4.30;;;;;;;12.67;84.27;97674.67;1733483;83;20995;-74
2021/05/23 02:36:00;;;;;;;5.83;4.33;;;;;;;12.58;83.52;97676.40;1760275;81;21470;-73
2021/05/23 02:38:27;;;;;;;6.08;4.50;;;;;;;12.51;83.46;97669.15;1760617;81;21014;-74
2021/05/23 02:40:54;;;;;;;5.67;4.20;;;;;;;12.51;83.47;97668.30;1760688;81;21046;-74
2021/05/23 02:43:22;;;;;;;5.12;4.30;;;;;;;12.50;83.42;97670.57;1737091;81;21030;-75
2021/05/23 02:45:51;;;;;;;5.25;4.72;;;;;;;12.51;83.44;97677.61;1694138;85;21052;-74
2021/05/23 02:48:18;;;;;;;6.25;4.00;;;;;;;12.49;83.50;97675.46;1694159;85;21509;-74
2021/05/23 02:50:50;;;;;;;4.40;4.00;;;;;;;12.43;85.74;97669.96;1694069;85;21047;-75
2021/05/23 02:53:18;;;;;;;6.22;4.33;;;;;;;12.41;84.17;97672.68;1713622;83;21006;-74
2021/05/23 02:55:47;;;;;;;7.70;4.67;;;;;;;12.38;85.62;97679.44;1760606;81;21030;-74
2021/05/23 02:58:16;;;;;;;5.17;3.95;;;;;;;12.39;84.72;97677.66;1718592;83;21055;-74
2021/05/23 03:00:44;;;;;;;5.92;4.60;;;;;;;12.37;85.73;97682.19;1718625;82;21019;-74
2021/05/23 03:03:12;;;;;;;6.28;4.42;;;;;;;12.36;86.71;97686.63;1702126;83;21505;-73
2021/05/23 03:05:39;;;;;;;5.40;4.40;;;;;;;12.32;87.34;97689.45;1664692;86;21512;-74
2021/05/23 03:08:07;;;;;;;7.35;4.20;;;;;;;12.31;85.90;97687.28;1691019;85;21093;-75
2021/05/23 03:10:47;;;;;;;5.62;4.60;;;;;;;12.34;85.66;97684.96;1690983;85;21127;-75
2021/05/23 03:13:14;;;;;;;6.80;4.60;;;;;;;12.34;85.01;97673.84;1707314;83;20979;-74
2021/05/23 03:15:41;;;;;;;6.90;4.40;;;;;;;12.34;84.89;97665.03;1718552;83;21059;-75
2021/05/23 03:18:09;;;;;;;6.03;4.20;;;;;;;12.35;84.71;97670.29;1718580;83;21555;-74
2021/05/23 03:20:40;;;;;;;5.58;4.35;;;;;;;12.36;85.82;97663.16;1718500;83;20991;-75
2021/05/23 03:23:07;;;;;;;4.87;4.08;;;;;;;12.35;85.36;97673.40;1707194;83;21053;-74
2021/05/23 03:25:34;;;;;;;5.42;4.30;;;;;;;12.36;85.24;97683.97;1726296;83;21499;-74
2021/05/23 03:28:02;;;;;;;4.65;3.98;;;;;;;12.37;84.61;97686.17;1726364;83;21523;-74
2021/05/23 03:30:39;;;;;;;4.85;4.00;;;;;;;12.39;84.35;97694.48;1730521;83;21043;-74
2021/05/23 03:33:07;;;;;;;4.58;3.20;;;;;;;12.40;84.21;97688.23;1726100;83;21035;-74
2021/05/23 03:35:35;;;;;;;5.45;4.08;;;;;;;12.39;84.30;97687.84;1711222;83;21147;-74
2021/05/23 03:38:03;;;;;;;4.72;4.10;;;;;;;12.40;83.96;97676.27;1690167;85;21056;-74
2021/05/23 03:40:31;;;;;;;4.20;3.80;;;;;;;12.41;83.77;97671.34;1667689;85;21070;-72
2021/05/23 03:42:58;;;;;;;5.70;3.90;;;;;;;12.41;84.55;97681.10;1662200;86;21074;-74
2021/05/23 03:45:25;;;;;;;4.55;3.87;;;;;;;12.41;84.16;97699.70;1624532;87;21107;-75
2021/05/23 03:47:51;;;;;;;5.40;4.12;;;;;;;12.45;83.96;97708.44;1667275;86;21567;-73
2021/05/23 03:50:22;;;;;;;5.92;4.00;;;;;;;12.49;83.85;97717.98;1667409;86;21058;-75
2021/05/23 03:52:54;;;;;;;5.97;3.98;;;;;;;12.56;83.56;97711.95;1667419;86;21035;-73
2021/05/23 03:55:23;;;;;;;6.00;3.72;;;;;;;12.64;83.49;97710.72;1694794;85;21036;-74
2021/05/23 03:57:49;;;;;;;3.95;3.52;;;;;;;12.71;83.57;97708.63;1672809;84;21036;-73
2021/05/23 04:00:20;;;;;;;6.55;3.60;;;;;;;12.80;83.87;97717.55;1664066;86;21104;-73
2021/05/23 04:02:54;;;;;;;4.25;3.65;;;;;;;12.90;83.70;97723.34;1707749;83;21060;-73
2021/05/23 04:05:25;;;;;;;4.65;3.60;;;;;;;13.00;83.63;97713.64;1710894;84;21027;-74
2021/05/23 04:07:52;;;;;;;6.55;3.58;;;;;;;13.11;83.52;97723.78;1711012;83;21059;-74
2021/05/23 04:10:24;;;;;;;3.47;3.15;;;;;;;13.22;83.54;97720.20;1710915;83;21110;-74
2021/05/23 04:12:50;;;;;;;7.37;3.70;;;;;;;13.29;83.37;97730.11;1690926;84;21485;-73
2021/05/23 04:15:18;;;;;;;4.67;3.10;;;;;;;13.35;82.89;97733.81;1677226;84;21519;-74
2021/05/23 04:17:46;;;;;;;6.47;3.20;;;;;;;13.39;82.63;97738.07;1706116;84;21018;-74
2021/05/23 04:20:17;;;;;;;4.12;3.20;;;;;;;13.48;82.52;97734.15;1706065;84;21065;-74
2021/05/23 04:22:44;;;;;;;3.90;3.22;;;;;;;13.55;82.65;97725.42;1705642;84;20990;-75
2021/05/23 04:25:13;;;;;;;5.65;3.37;;;;;;;13.58;82.42;97723.95;1706275;84;21042;-74
2021/05/23 04:27:42;;;;;;;4.87;3.50;;;;;;;13.59;82.20;97730.52;1710897;84;21468;-75
2021/05/23 04:30:11;;;;;;;4.70;3.70;;;;;;;13.63;81.91;97729.94;1705877;84;21089;-75
2021/05/23 04:32:39;;;;;;;5.70;3.65;;;;;;;13.65;81.75;97725.84;1690619;84;21019;-74
2021/05/23 04:35:08;;;;;;;5.72;3.30;;;;;;;13.66;81.28;97720.45;1715800;83;21047;-75
2021/05/23 04:37:34;;;;;;;4.30;3.87;;;;;;;13.66;81.36;97715.13;1699186;83;21089;-75
2021/05/23 04:40:01;;;;;;;4.75;3.65;;;;;;;13.68;81.18;97719.05;1722451;83;21035;-75
2021/05/23 04:42:30;;;;;;;5.15;3.70;;;;;;;13.68;81.67;97718.59;1716889;83;21009;-74
2021/05/23 04:44:56;;;;;;;4.55;3.67;;;;;;;13.67;81.25;97720.84;1691669;85;21083;-74
2021/05/23 04:47:24;;;;;;;6.28;3.72;;;;;;;13.68;80.99;97717.72;1691859;85;21163;-74
2021/05/23 04:49:51;;;;;;;5.75;3.85;;;;;;;13.64;80.81;97707.69;1691827;85;21067;-75
2021/05/23 04:52:17;;;;;;;4.95;3.90;;;;;;;13.65;80.84;97719.19;1694776;83;21080;-75
2021/05/23 04:54:44;;;;;;;5.67;3.50;;;;;;;13.61;80.90;97716.30;1722580;83;20978;-75
2021/05/23 04:57:11;;;;;;;6.30;3.72;;;;;;;13.59;81.21;97722.53;1696690;82;21029;-75
2021/05/23 04:59:37;;;;;;;5.05;3.27;;;;;;;13.55;81.79;97720.09;1691871;85;21052;-75
2021/05/23 05:02:04;;;;;;;4.78;3.25;;;;;;;13.50;81.58;97722.98;1692004;82;21539;-75
2021/05/23 05:04:31;;;;;;;4.60;2.92;;;;;;;13.45;82.18;97718.27;1722058;83;21046;-75
2021/05/23 05:06:58;;;;;;;7.40;3.40;;;;;;;13.40;82.96;97711.84;1722640;83;21054;-74
2021/05/23 05:09:25;;;;;;;4.92;3.65;;;;;;;13.38;83.46;97717.72;1722670;83;21143;-75
2021/05/23 05:11:52;;;;;;;6.00;3.30;;;;;;;13.37;82.55;97720.44;1722506;83;21565;-74
2021/05/23 05:14:18;;;;;;;5.70;3.40;;;;;;;13.38;81.90;97719.05;1720594;83;21011;-74
2021/05/23 05:16:46;;;;;;;6.05;3.95;;;;;;;13.40;81.74;97714.51;1724906;83;21010;-74
2021/05/23 05:19:13;;;;;;;6.67;3.80;;;;;;;13.44;81.93;97712.56;1730829;83;21066;-74
2021/05/23 05:21:39;;;;;;;4.03;3.58;;;;;;;13.46;81.92;97718.20;1762833;81;21495;-74
2021/05/23 05:24:08;;;;;;;6.12;4.10;;;;;;;13.52;81.95;97724.22;1734844;81;20994;-75
2021/05/23 05:26:34;;;;;;;6.12;3.92;;;;;;;13.59;81.85;97714.54;1726633;83;21050;-74
2021/05/23 05:29:02;;;;;;;9.53;7.53;;;;;;;13.67;81.58;97716.84;1726718;83;21467;-74
2021/05/23 05:31:29;;;;;;;22.20;16.42;;;;;;;13.74;81.29;97717.42;1726670;83;21049;-74
2021/05/23 05:33:56;;;;;;;5.00;4.03;;;;;;;13.82;81.02;97717.94;1751137;81;21010;-74
2021/05/23 05:36:23;;;;;;;4.15;3.77;;;;;;;13.91;80.62;97723.77;1748427;81;21026;-74
2021/05/23 05:38:49;;;;;;;6.20;3.65;;;;;;;14.01;80.25;97729.05;1746792;82;21011;-74
2021/05/23 05:41:17;;;;;;;3.65;3.05;;;;;;;14.11;79.67;97731.66;1745911;81;21042;-74
2021/05/23 05:43:44;;;;;;;4.95;3.50;;;;;;;14.24;79.46;97729.72;1725016;82;21047;-74
2021/05/23 05:46:10;;;;;;;4.10;3.70;;;;;;;14.37;79.02;97731.34;1740334;82;21448;-74
2021/05/23 05:48:37;;;;;;;7.78;3.20;;;;;;;14.50;79.20;97728.92;1741943;82;21010;-74
2021/05/23 05:51:05;;;;;;;2.85;2.55;;;;;;;14.61;79.08;97721.23;1746931;81;21499;-75
2021/05/23 05:53:31;;;;;;;4.62;2.85;;;;;;;14.71;78.73;97724.32;1741081;81;21041;-74
2021/05/23 05:55:58;;;;;;;3.20;2.80;;;;;;;14.84;78.37;97711.70;1737276;82;21165;-75
2021/05/23 05:58:25;;;;;;;4.17;3.25;;;;;;;14.97;78.13;97709.25;1744115;82;21074;-75
2021/05/23 06:00:51;;;;;;;3.62;3.33;;;;;;;15.08;77.55;97702.91;1746406;81;21026;-75
2021/05/23 06:03:18;;;;;;;6.28;3.35;;;;;;;15.21;77.38;97707.58;1746795;82;21360;-75
2021/05/23 06:05:44;;;;;;;5.47;3.72;;;;;;;15.33;77.09;97706.94;1746942;81;21035;-74
2021/05/23 06:08:11;;;;;;;4.95;4.45;;;;;;;15.44;76.83;97701.87;1680247;84;21035;-75
2021/05/23 06:10:37;;;;;;;6.78;3.92;;;;;;;15.60;76.62;97696.17;1670200;86;21055;-75
2021/05/23 06:13:04;;;;;;;5.92;4.08;;;;;;;15.77;76.18;97692.08;1670275;86;21098;-74
2021/05/23 06:15:33;;;;;;;5.85;4.33;;;;;;;15.95;75.71;97690.20;1669635;86;21563;-72
2021/05/23 06:18:00;;;;;;;6.40;4.10;;;;;;;16.10;74.74;97689.82;1688132;84;21022;-75
2021/05/23 06:20:27;;;;;;;7.80;6.08;;;;;;;16.20;73.79;97695.48;1701398;84;21034;-75
2021/05/23 06:22:54;;;;;;;8.10;5.50;;;;;;;16.32;74.29;97691.74;1701296;84;21504;-74
2021/05/23 06:25:22;;;;;;;7.85;4.90;;;;;;;16.47;73.71;97692.64;1695908;84;21026;-74
2021/05/23 06:27:49;;;;;;;9.48;4.75;;;;;;;16.62;73.19;97701.59;1670177;86;21519;-74
2021/05/23 06:30:17;;;;;;;11.48;4.78;;;;;;;16.73;71.58;97703.14;1670141;86;21066;-74
2021/05/23 06:32:44;;;;;;;6.37;4.92;;;;;;;16.85;70.58;97700.67;1670125;86;21049;-74
2021/05/23 06:35:17;;;;;;;8.53;5.53;;;;;;;16.96;72.37;97694.22;1673084;84;21042;-74
2021/05/23 06:37:47;;;;;;;5.83;4.85;;;;;;;17.08;69.38;97689.97;1685546;84;21524;-74
2021/05/23 06:40:15;;;;;;;6.95;4.67;;;;;;;17.18;70.39;97686.23;1683943;85;20996;-74
2021/05/23 06:42:41;;;;;;;9.20;4.42;;;;;;;17.31;69.98;97679.62;1708333;84;21102;-74
2021/05/23 06:45:08;;;;;;;6.05;3.92;;;;;;;17.41;67.88;97685.28;1699578;84;21081;-74
2021/05/23 06:47:35;;;;;;;6.20;3.33;;;;;;;17.50;67.84;97683.37;1679616;84;21110;-74
2021/05/23 06:50:05;;;;;;;7.28;3.60;;;;;;;17.50;64.95;97677.14;1708499;84;21023;-74
2021/05/23 06:52:32;;;;;;;6.15;3.40;;;;;;;17.42;66.83;97672.27;1701449;84;21535;-74
2021/05/23 06:54:58;;;;;;;5.10;3.80;;;;;;;17.41;66.25;97667.38;1708621;84;21051;-74
2021/05/23 06:57:25;;;;;;;3.90;2.77;;;;;;;17.37;65.66;97669.89;1678776;84;21029;-74
2021/05/23 06:59:52;;;;;;;4.33;2.92;;;;;;;17.37;65.59;97683.75;1678708;85;21068;-73
2021/05/23 07:02:20;;;;;;;5.00;3.50;;;;;;;17.43;66.11;97683.86;1678617;85;21104;-74
2021/05/23 07:04:47;;;;;;;3.70;3.37;;;;;;;17.49;65.63;97672.28;1678505;85;21040;-74
2021/05/23 07:07:13;;;;;;;6.15;3.15;;;;;;;17.60;64.30;97679.62;1687938;84;21001;-74
2021/05/23 07:09:41;;;;;;;4.90;2.98;;;;;;;17.75;63.51;97675.11;1678700;85;21068;-74
2021/05/23 07:12:10;;;;;;;4.30;3.00;;;;;;;17.90;63.65;97679.10;1682209;85;21028;-74
2021/05/23 07:14:37;;;;;;;4.83;3.40;;;;;;;18.05;62.99;97679.91;1682788;85;21003;-72
2021/05/23 07:17:04;;;;;;;4.87;3.12;;;;;;;18.18;63.35;97674.63;1675611;85;21052;-75
2021/05/23 07:19:30;;;;;;;3.12;2.83;;;;;;;18.33;63.13;97675.44;1702912;84;21054;-76
2021/05/23 07:21:59;;;;;;;5.25;3.85;;;;;;;18.46;62.06;97674.13;1718977;83;21126;-75
2021/05/23 07:24:25;;;;;;;6.12;2.98;;;;;;;18.51;61.25;97667.14;1707445;83;21575;-75
2021/05/23 07:26:52;;;;;;;6.10;2.40;;;;;;;18.65;62.08;97663.50;1679855;84;21090;-75
2021/05/23 07:29:18;;;;;;;4.85;3.50;;;;;;;18.80;60.29;97662.92;1679881;84;21045;-75
2021/05/23 07:31:45;;;;;;;2.87;2.58;;;;;;;18.92;60.02;97668.80;1689691;84;21506;-75
2021/05/23 07:34:11;;;;;;;5.92;3.02;;;;;;;19.03;59.89;97660.48;1690113;84;21034;-76
2021/05/23 07:36:38;;;;;;;3.40;1.67;;;;;;;19.10;59.34;97662.66;1709198;84;21079;-76
2021/05/23 07:39:04;;;;;;;3.45;1.92;;;;;;;19.26;59.26;97661.09;1706116;84;21022;-76
2021/05/23 07:41:32;;;;;;;3.67;1.98;;;;;;;19.36;58.22;97657.26;1705454;84;21022;-76
2021/05/23 07:43:58;;;;;;;3.02;2.12;;;;;;;19.48;57.58;97654.18;1705495;84;21018;-77
2021/05/23 07:46:25;;;;;;;2.92;1.70;;;;;;;19.59;56.92;97657.45;1699140;84;21151;-75
2021/05/23 07:48:52;;;;;;;3.33;1.87;;;;;;;19.68;56.74;97656.41;1709444;83;20999;-74
2021/05/23 07:51:18;;;;;;;3.30;2.08;;;;;;;19.79;57.74;97660.52;1696092;84;21020;-76
2021/05/23 07:53:47;;;;;;;4.58;2.27;;;;;;;19.83;55.58;97656.64;1695250;84;21027;-75
2021/05/23 07:56:13;;;;;;;1.92;1.70;;;;;;;19.88;56.20;97648.22;1661767;85;21068;-75
2021/05/23 07:58:40;;;;;;;5.45;1.50;;;;;;;19.98;53.21;97646.63;1712265;84;21082;-75
2021/05/23 08:01:08;;;;;;;3.45;1.80;;;;;;;20.10;56.03;97642.14;1713390;84;21467;-75
2021/05/23 08:03:35;;;;;;;2.40;1.70;;;;;;;20.16;54.85;97643.05;1712054;84;21077;-75
2021/05/23 08:06:04;;;;;;;2.40;1.90;;;;;;;20.13;52.39;97635.20;1706052;84;21050;-75
2021/05/23 08:08:30;;;;;;;1.95;1.70;;;;;;;20.13;54.42;97631.63;1711050;84;21114;-75
2021/05/23 08:10:56;;;;;;;2.77;1.70;;;;;;;20.05;52.04;97618.77;1694213;84;21487;-78
2021/05/23 08:13:23;;;;;;;3.02;1.95;;;;;;;20.01;53.66;97626.72;1706152;84;21042;-79
2021/05/23 08:15:50;;;;;;;3.92;1.55;;;;;;;19.99;52.60;97616.06;1705933;84;21061;-76
2021/05/23 08:18:19;;;;;;;4.35;1.92;;;;;;;19.99;53.31;97615.19;1652062;87;21103;-79
2021/05/23 08:20:47;;;;;;;2.80;1.70;;;;;;;19.96;53.42;97617.59;1663903;85;21035;-77
2021/05/23 08:23:14;;;;;;;2.87;1.90;;;;;;;19.91;52.19;97619.30;1655088;85;21484;-77
2021/05/23 08:25:40;;;;;;;3.60;1.90;;;;;;;19.92;51.55;97622.34;1665299;84;21031;-79
2021/05/23 08:28:07;;;;;;;3.85;2.25;;;;;;;19.92;52.35;97626.38;1700044;84;21038;-79
2021/05/23 08:30:33;;;;;;;4.00;1.90;;;;;;;20.01;50.49;97621.34;1701450;84;21100;-79
2021/05/23 08:33:00;;;;;;;6.87;2.95;;;;;;;20.15;52.33;97620.30;1683781;85;21020;-79
2021/05/23 08:35:27;;;;;;;2.37;1.60;;;;;;;20.28;51.79;97617.53;1681377;85;21018;-74
2021/05/23 08:37:53;;;;;;;2.75;1.85;;;;;;;20.39;51.67;97618.91;1708841;83;21004;-72
2021/05/23 08:40:20;;;;;;;10.68;2.08;;;;;;;20.55;51.05;97621.80;1690183;85;21121;-73
2021/05/23 08:42:47;;;;;;;2.00;1.80;;;;;;;20.66;48.50;97622.30;1690059;85;21081;-73
2021/05/23 08:45:14;;;;;;;4.17;2.47;;;;;;;20.77;51.16;97622.82;1686378;84;21058;-72
2021/05/23 08:47:45;;;;;;;7.40;1.75;;;;;;;20.92;50.66;97614.08;1647431;87;21028;-72
2021/05/23 08:50:20;;;;;;;4.70;2.10;;;;;;;21.05;50.75;97606.72;1663810;86;21069;-72
2021/05/23 08:52:57;;;;;;;3.30;1.62;;;;;;;21.19;48.90;97596.69;1715279;83;21015;-72
2021/05/23 08:55:24;;;;;;;3.47;1.90;;;;;;;21.27;48.41;97598.77;1707887;84;20982;-73
2021/05/23 08:57:56;;;;;;;3.60;2.65;;;;;;;21.21;48.06;97594.23;1706156;84;21054;-75
2021/05/23 09:00:23;;;;;;;4.12;2.02;;;;;;;21.23;48.11;97585.53;1695727;84;21002;-74
2021/05/23 09:03:04;;;;;;;4.05;1.70;;;;;;;21.28;47.61;97582.48;1675970;85;21022;-73
2021/05/23 09:05:35;;;;;;;3.22;1.87;;;;;;;21.25;48.37;97583.23;1676246;84;21017;-73
2021/05/23 09:08:06;;;;;;;3.42;1.80;;;;;;;21.21;48.31;97579.42;1688898;84;21495;-74
2021/05/23 09:10:36;;;;;;;2.20;1.77;;;;;;;21.19;48.90;97585.44;1662685;84;21122;-74
2021/05/23 09:13:04;;;;;;;3.50;1.85;;;;;;;21.27;48.73;97581.25;1657828;86;21077;-75
2021/05/23 09:15:31;;;;;;;2.72;2.10;;;;;;;21.36;48.75;97571.95;1644223;84;21049;-74
2021/05/23 09:18:15;;;;;;;3.92;1.77;;;;;;;21.46;48.29;97577.44;1679262;84;21047;-73
2021/05/23 09:20:43;;;;;;;3.03;1.90;;;;;;;21.50;46.42;97568.12;1679610;84;21088;-73
2021/05/23 09:23:21;;;;;;;2.02;1.60;;;;;;;21.54;46.16;97564.67;1683383;84;21094;-74
2021/05/23 09:25:46;;;;;;;5.40;1.50;;;;;;;21.60;47.11;97556.59;1683094;85;21082;-75
2021/05/23 09:28:13;;;;;;;4.33;2.50;;;;;;;21.62;45.59;97553.26;1695943;84;21098;-74
2021/05/23 09:30:46;;;;;;;2.27;1.52;;;;;;;21.62;45.75;97555.48;1711103;84;21043;-74
2021/05/23 09:33:19;;;;;;;2.25;1.95;;;;;;;21.68;45.74;97550.08;1692293;83;21481;-75
2021/05/23 09:35:47;;;;;;;4.00;1.90;;;;;;;21.84;46.76;97551.02;1681094;84;21145;-74
2021/05/23 09:38:20;;;;;;;2.65;1.65;;;;;;;22.06;47.08;97540.27;1695189;84;21032;-76
2021/05/23 09:40:46;;;;;;;2.35;2.00;;;;;;;22.24;46.50;97538.72;1666178;85;21086;-76
2021/05/23 09:43:21;;;;;;;3.52;2.05;;;;;;;22.42;46.24;97536.28;1683301;85;21071;-79
2021/05/23 09:45:55;;;;;;;3.55;2.75;;;;;;;22.62;45.20;97526.14;1697319;84;21022;-78
2021/05/23 09:48:27;;;;;;;3.95;2.27;;;;;;;22.83;45.61;97527.95;1696493;84;21528;-78
2021/05/23 09:50:57;;;;;;;3.70;2.17;;;;;;;22.96;45.73;97525.86;1691924;84;21063;-78
2021/05/23 09:53:33;;;;;;;2.83;2.20;;;;;;;22.97;44.00;97519.48;1696829;83;22306;-78
2021/05/23 09:56:07;;;;;;;3.75;2.00;;;;;;;22.96;45.16;97516.91;1696007;84;21012;-79
2021/05/23 09:58:45;;;;;;;3.12;2.45;;;;;;;22.99;45.32;97520.19;1694313;84;21432;-76
2021/05/23 10:01:30;;;;;;;5.35;1.92;;;;;;;23.08;45.65;97515.80;1697655;83;21086;-77
2021/05/23 10:04:00;;;;;;;3.15;1.85;;;;;;;23.21;45.73;97508.31;1676246;84;21020;-77
2021/05/23 10:06:36;;;;;;;3.83;1.70;;;;;;;23.34;44.71;97509.45;1700159;84;21043;-80
2021/05/23 10:09:05;;;;;;;2.02;1.80;;;;;;;23.41;44.38;97512.97;1694525;84;20999;-80
2021/05/23 10:11:31;;;;;;;3.40;1.95;;;;;;;23.55;43.85;97513.89;1692594;83;20991;-84
2021/05/23 10:13:58;;;;;;;2.92;1.70;;;;;;;23.68;43.04;97518.20;1651272;87;21581;-80
2021/05/23 10:16:26;;;;;;;2.50;1.90;;;;;;;23.81;43.82;97509.31;1695719;84;21011;-81
2021/05/23 10:18:54;;;;;;;3.17;2.00;;;;;;;23.95;43.25;97499.08;1681520;84;21074;-80
2021/05/23 10:21:22;;;;;;;5.60;2.95;;;;;;;24.11;42.56;97497.15;1678891;84;21686;-79
2021/05/23 10:23:55;;;;;;;1.67;1.57;;;;;;;24.31;42.59;97499.34;1705417;84;21114;-76
2021/05/23 10:26:25;;;;;;;;;;;;;;;24.45;40.18;97497.19;1694583;84;21015;-79
2021/05/23 10:28:54;;;;;;;2.35;1.22;;;;;;;24.56;40.37;97494.30;1667942;85;20470;-79
2021/05/23 10:31:33;;;;;;;2.05;1.30;;;;;;;24.74;39.54;97494.38;1683760;85;21030;-80
2021/05/23 10:34:01;;;;;;;2.12;1.30;;;;;;;24.90;36.94;97496.98;1683104;85;21146;-81
2021/05/23 10:36:36;;;;;;;3.90;1.40;;;;;;;25.08;37.47;97497.05;1665935;85;21038;-81
2021/05/23 10:39:08;;;;;;;1.57;1.15;;;;;;;25.19;34.25;97501.42;1676653;84;21086;-81
2021/05/23 10:41:35;;;;;;;2.98;1.22;;;;;;;25.52;35.31;97506.38;1681906;85;21118;-81
2021/05/23 10:44:06;;;;;;;2.02;1.42;;;;;;;26.57;34.38;97500.91;1682623;85;21157;-81
2021/05/23 10:46:50;;;;;;;4.22;1.70;;;;;;;27.13;32.61;97488.31;1709576;84;21014;-81
2021/05/23 10:49:20;;;;;;;2.85;1.40;;;;;;;27.52;33.68;97483.68;1712856;84;21558;-81
2021/05/23 10:51:56;;;;;;;2.75;1.40;;;;;;;27.53;34.68;97477.74;1712781;84;21516;-81
2021/05/23 10:54:23;;;;;;;3.12;1.35;;;;;;;27.37;34.41;97485.34;1712750;84;21487;-81
2021/05/23 10:57:04;;;;;;;3.00;1.60;;;;;;;26.98;34.87;97475.34;1709434;84;21004;-81
2021/05/23 10:59:31;;;;;;;2.52;1.37;;;;;;;27.03;35.39;97478.08;1708466;84;21115;-81
2021/05/23 11:01:59;;;;;;;2.08;1.62;;;;;;;27.03;35.39;97478.08;1708235;84;21440;-80
2021/05/23 11:04:41;;;;;;;2.00;1.50;;;;;;;27.20;34.18;97474.42;1710934;84;21075;-81
2021/05/23 11:07:11;;;;;;;3.52;1.72;;;;;;;26.96;35.69;97469.72;1711065;84;21011;-80
2021/05/23 11:09:43;;;;;;;3.95;1.77;;;;;;;26.65;35.84;97467.50;1710795;83;21615;-81
2021/05/23 11:12:18;;;;;;;1.50;1.35;;;;;;;26.38;35.53;97467.50;1709560;84;21074;-81
2021/05/23 11:14:41;;;;;;;4.00;1.40;;;;;;;26.13;35.70;97463.71;1689340;85;21044;-80
2021/05/23 11:17:12;;;;;;;1.60;1.50;;;;;;;26.39;36.11;97453.39;1686080;84;21477;-80
2021/05/23 11:19:38;;;;;;;2.22;1.40;;;;;;;27.49;35.61;97438.27;1708139;84;21047;-80
2021/05/23 11:22:05;;;;;;;3.52;1.60;;;;;;;28.43;34.13;97422.98;1708105;84;21070;-80
2021/05/23 11:24:35;;;;;;;2.30;1.70;;;;;;;28.97;32.80;97428.80;1708125;84;21004;-81
2021/05/23 11:27:18;;;;;;;4.50;1.47;;;;;;;28.79;32.10;97438.05;1708059;84;21567;-81
2021/05/23 11:29:53;;;;;;;1.80;1.27;;;;;;;29.49;31.74;97424.61;1707857;84;21047;-80
2021/05/23 11:32:19;;;;;;;2.75;1.50;;;;;;;30.54;30.35;97418.63;1709193;84;21070;-81
2021/05/23 11:34:46;;;;;;;1.95;1.30;;;;;;;31.25;28.85;97406.00;1710980;84;21079;-81
2021/05/23 11:37:13;;;;;;;2.33;1.47;;;;;;;31.77;28.38;97407.29;1710868;84;21035;-81
2021/05/23 11:39:40;;;;;;;1.90;1.37;;;;;;;32.05;28.57;97408.72;1710944;84;21000;-81
2021/05/23 11:42:09;;;;;;;3.25;1.40;;;;;;;32.78;27.07;97406.20;1710121;84;20992;-81
2021/05/23 11:44:38;;;;;;;2.00;1.25;;;;;;;32.55;27.17;97399.64;1710906;83;21054;-81
2021/05/23 11:47:06;;;;;;;1.98;1.40;;;;;;;32.49;25.96;97394.94;1709785;84;21034;-81